sensor_id;sensor_type;location;lat;lon;timestamp;temperature;humidity
67777;DHT22;54576;52.020;5.536;2023-06-26T00:00:18;24.20;57.20
67777;DHT22;54576;52.020;5.536;2023-06-26T00:02:44;24.10;57.50
67777;DHT22;54576;52.020;5.536;2023-06-26T00:05:10;24.10;57.60
67777;DHT22;54576;52.020;5.536;2023-06-26T00:07:36;24.10;57.60
67777;DHT22;54576;52.020;5.536;2023-06-26T00:10:03;24.10;57.50
67777;DHT22;54576;52.020;5.536;2023-06-26T00:12:29;24.10;57.60
67777;DHT22;54576;52.020;5.536;2023-06-26T00:14:55;24.10;57.60
67777;DHT22;54576;52.020;5.536;2023-06-26T00:17:21;24.10;57.60
67777;DHT22;54576;52.020;5.536;2023-06-26T00:19:47;24.10;57.80
67777;DHT22;54576;52.020;5.536;2023-06-26T00:22:13;24.10;57.90
67777;DHT22;54576;52.020;5.536;2023-06-26T00:24:38;24.10;57.70
67777;DHT22;54576;52.020;5.536;2023-06-26T00:27:04;24.10;57.80
67777;DHT22;54576;52.020;5.536;2023-06-26T00:29:30;24.00;57.70
67777;DHT22;54576;52.020;5.536;2023-06-26T00:31:55;24.00;57.80
67777;DHT22;54576;52.020;5.536;2023-06-26T00:34:21;24.00;58.00
67777;DHT22;54576;52.020;5.536;2023-06-26T00:36:46;23.90;57.80
67777;DHT22;54576;52.020;5.536;2023-06-26T00:39:12;24.00;57.70
67777;DHT22;54576;52.020;5.536;2023-06-26T00:41:38;23.90;57.60
67777;DHT22;54576;52.020;5.536;2023-06-26T00:44:04;23.90;57.60
67777;DHT22;54576;52.020;5.536;2023-06-26T00:46:31;23.90;57.70
67777;DHT22;54576;52.020;5.536;2023-06-26T00:48:58;23.90;57.70
67777;DHT22;54576;52.020;5.536;2023-06-26T00:51:24;23.90;57.90
67777;DHT22;54576;52.020;5.536;2023-06-26T00:53:49;23.90;58.10
67777;DHT22;54576;52.020;5.536;2023-06-26T00:56:17;23.80;58.10
67777;DHT22;54576;52.020;5.536;2023-06-26T00:58:43;23.80;58.30
67777;DHT22;54576;52.020;5.536;2023-06-26T01:01:09;23.70;58.30
67777;DHT22;54576;52.020;5.536;2023-06-26T01:03:41;23.70;58.40
67777;DHT22;54576;52.020;5.536;2023-06-26T01:06:08;23.60;58.40
67777;DHT22;54576;52.020;5.536;2023-06-26T01:08:37;23.60;58.80
67777;DHT22;54576;52.020;5.536;2023-06-26T01:11:03;23.50;58.80
67777;DHT22;54576;52.020;5.536;2023-06-26T01:13:29;23.50;58.80
67777;DHT22;54576;52.020;5.536;2023-06-26T01:16:00;23.50;58.90
67777;DHT22;54576;52.020;5.536;2023-06-26T01:18:26;23.40;58.90
67777;DHT22;54576;52.020;5.536;2023-06-26T01:20:52;23.40;59.10
67777;DHT22;54576;52.020;5.536;2023-06-26T01:23:35;23.30;59.20
67777;DHT22;54576;52.020;5.536;2023-06-26T01:26:20;23.30;60.60
67777;DHT22;54576;52.020;5.536;2023-06-26T01:28:46;23.30;60.60
67777;DHT22;54576;52.020;5.536;2023-06-26T01:31:15;23.20;59.70
67777;DHT22;54576;52.020;5.536;2023-06-26T01:33:43;23.20;59.60
67777;DHT22;54576;52.020;5.536;2023-06-26T01:36:09;23.10;59.70
67777;DHT22;54576;52.020;5.536;2023-06-26T01:38:35;23.10;60.00
67777;DHT22;54576;52.020;5.536;2023-06-26T01:41:02;23.10;60.00
67777;DHT22;54576;52.020;5.536;2023-06-26T01:46:22;23.00;61.40
67777;DHT22;54576;52.020;5.536;2023-06-26T01:51:41;22.90;61.40
67777;DHT22;54576;52.020;5.536;2023-06-26T01:54:11;22.80;60.10
67777;DHT22;54576;52.020;5.536;2023-06-26T01:56:38;22.70;60.60
67777;DHT22;54576;52.020;5.536;2023-06-26T01:59:06;22.60;60.80
67777;DHT22;54576;52.020;5.536;2023-06-26T02:01:33;22.50;61.10
67777;DHT22;54576;52.020;5.536;2023-06-26T02:03:59;22.30;61.30
67777;DHT22;54576;52.020;5.536;2023-06-26T02:06:25;22.30;61.50
67777;DHT22;54576;52.020;5.536;2023-06-26T02:08:50;22.20;62.70
67777;DHT22;54576;52.020;5.536;2023-06-26T02:11:16;22.20;62.10
67777;DHT22;54576;52.020;5.536;2023-06-26T02:13:41;22.20;62.30
67777;DHT22;54576;52.020;5.536;2023-06-26T02:16:07;22.10;62.40
67777;DHT22;54576;52.020;5.536;2023-06-26T02:18:33;22.10;62.70
67777;DHT22;54576;52.020;5.536;2023-06-26T02:20:58;22.00;63.10
67777;DHT22;54576;52.020;5.536;2023-06-26T02:23:24;22.00;62.90
67777;DHT22;54576;52.020;5.536;2023-06-26T02:25:49;21.90;63.30
67777;DHT22;54576;52.020;5.536;2023-06-26T02:28:15;21.90;63.50
67777;DHT22;54576;52.020;5.536;2023-06-26T02:30:40;21.80;63.60
67777;DHT22;54576;52.020;5.536;2023-06-26T02:33:06;21.80;65.10
67777;DHT22;54576;52.020;5.536;2023-06-26T02:35:31;21.60;64.50
67777;DHT22;54576;52.020;5.536;2023-06-26T02:37:58;21.60;65.40
67777;DHT22;54576;52.020;5.536;2023-06-26T02:40:23;21.50;65.40
67777;DHT22;54576;52.020;5.536;2023-06-26T02:42:49;21.50;65.50
67777;DHT22;54576;52.020;5.536;2023-06-26T02:45:15;21.40;65.90
67777;DHT22;54576;52.020;5.536;2023-06-26T02:47:43;21.40;66.40
67777;DHT22;54576;52.020;5.536;2023-06-26T02:50:09;21.40;66.60
67777;DHT22;54576;52.020;5.536;2023-06-26T02:52:35;21.30;74.20
67777;DHT22;54576;52.020;5.536;2023-06-26T02:55:00;21.20;66.50
67777;DHT22;54576;52.020;5.536;2023-06-26T02:57:26;21.20;66.90
67777;DHT22;54576;52.020;5.536;2023-06-26T02:59:51;21.20;67.90
67777;DHT22;54576;52.020;5.536;2023-06-26T03:02:17;21.10;68.50
67777;DHT22;54576;52.020;5.536;2023-06-26T03:04:42;21.10;69.60
67777;DHT22;54576;52.020;5.536;2023-06-26T03:07:08;21.00;69.20
67777;DHT22;54576;52.020;5.536;2023-06-26T03:09:34;21.00;69.50
67777;DHT22;54576;52.020;5.536;2023-06-26T03:12:00;21.00;70.10
67777;DHT22;54576;52.020;5.536;2023-06-26T03:14:25;21.00;70.10
67777;DHT22;54576;52.020;5.536;2023-06-26T03:16:52;21.00;70.40
67777;DHT22;54576;52.020;5.536;2023-06-26T03:19:18;20.90;71.30
67777;DHT22;54576;52.020;5.536;2023-06-26T03:21:44;20.80;71.30
67777;DHT22;54576;52.020;5.536;2023-06-26T03:24:09;20.80;72.40
67777;DHT22;54576;52.020;5.536;2023-06-26T03:26:35;20.80;72.80
67777;DHT22;54576;52.020;5.536;2023-06-26T03:29:00;20.80;72.00
67777;DHT22;54576;52.020;5.536;2023-06-26T03:31:26;20.80;72.40
67777;DHT22;54576;52.020;5.536;2023-06-26T03:33:51;20.80;74.00
67777;DHT22;54576;52.020;5.536;2023-06-26T03:36:17;20.70;73.20
67777;DHT22;54576;52.020;5.536;2023-06-26T03:38:43;20.70;73.80
67777;DHT22;54576;52.020;5.536;2023-06-26T03:41:08;20.70;74.60
67777;DHT22;54576;52.020;5.536;2023-06-26T03:43:34;20.70;73.80
67777;DHT22;54576;52.020;5.536;2023-06-26T03:45:59;20.80;74.30
67777;DHT22;54576;52.020;5.536;2023-06-26T03:48:25;20.90;74.00
67777;DHT22;54576;52.020;5.536;2023-06-26T03:50:51;20.90;74.20
67777;DHT22;54576;52.020;5.536;2023-06-26T03:53:16;20.90;73.80
67777;DHT22;54576;52.020;5.536;2023-06-26T03:55:42;20.90;74.50
67777;DHT22;54576;52.020;5.536;2023-06-26T03:58:08;20.90;74.30
67777;DHT22;54576;52.020;5.536;2023-06-26T04:00:33;20.90;76.00
67777;DHT22;54576;52.020;5.536;2023-06-26T04:02:59;20.90;75.80
67777;DHT22;54576;52.020;5.536;2023-06-26T04:05:24;20.90;76.10
67777;DHT22;54576;52.020;5.536;2023-06-26T04:07:51;20.90;75.50
67777;DHT22;54576;52.020;5.536;2023-06-26T04:10:18;20.90;75.30
67777;DHT22;54576;52.020;5.536;2023-06-26T04:12:43;20.90;76.60
67777;DHT22;54576;52.020;5.536;2023-06-26T04:15:09;20.90;75.90
67777;DHT22;54576;52.020;5.536;2023-06-26T04:17:35;21.00;76.60
67777;DHT22;54576;52.020;5.536;2023-06-26T04:20:00;21.00;77.40
67777;DHT22;54576;52.020;5.536;2023-06-26T04:22:26;20.90;78.20
67777;DHT22;54576;52.020;5.536;2023-06-26T04:24:52;20.90;76.80
67777;DHT22;54576;52.020;5.536;2023-06-26T04:27:18;21.00;77.00
67777;DHT22;54576;52.020;5.536;2023-06-26T04:29:44;21.00;77.70
67777;DHT22;54576;52.020;5.536;2023-06-26T04:32:09;21.00;77.30
67777;DHT22;54576;52.020;5.536;2023-06-26T04:34:36;21.00;77.00
67777;DHT22;54576;52.020;5.536;2023-06-26T04:37:04;21.00;76.50
67777;DHT22;54576;52.020;5.536;2023-06-26T04:39:30;21.20;76.90
67777;DHT22;54576;52.020;5.536;2023-06-26T04:41:56;21.50;74.50
67777;DHT22;54576;52.020;5.536;2023-06-26T04:44:21;21.70;74.00
67777;DHT22;54576;52.020;5.536;2023-06-26T04:46:47;22.20;72.20
67777;DHT22;54576;52.020;5.536;2023-06-26T04:49:12;22.60;70.30
67777;DHT22;54576;52.020;5.536;2023-06-26T04:51:38;23.00;69.10
67777;DHT22;54576;52.020;5.536;2023-06-26T04:54:09;23.30;67.90
67777;DHT22;54576;52.020;5.536;2023-06-26T04:56:35;23.60;67.70
67777;DHT22;54576;52.020;5.536;2023-06-26T04:59:01;23.70;67.10
67777;DHT22;54576;52.020;5.536;2023-06-26T05:01:27;24.00;66.30
67777;DHT22;54576;52.020;5.536;2023-06-26T05:03:55;24.10;66.30
67777;DHT22;54576;52.020;5.536;2023-06-26T05:06:21;24.40;65.50
67777;DHT22;54576;52.020;5.536;2023-06-26T05:08:47;24.70;65.00
67777;DHT22;54576;52.020;5.536;2023-06-26T05:11:13;24.80;64.20
67777;DHT22;54576;52.020;5.536;2023-06-26T05:13:38;24.80;64.20
67777;DHT22;54576;52.020;5.536;2023-06-26T05:16:04;25.00;65.10
67777;DHT22;54576;52.020;5.536;2023-06-26T05:18:29;25.30;63.70
67777;DHT22;54576;52.020;5.536;2023-06-26T05:20:55;25.60;63.10
67777;DHT22;54576;52.020;5.536;2023-06-26T05:23:22;25.70;62.50
67777;DHT22;54576;52.020;5.536;2023-06-26T05:25:50;25.80;62.20
67777;DHT22;54576;52.020;5.536;2023-06-26T05:28:16;26.00;61.80
67777;DHT22;54576;52.020;5.536;2023-06-26T05:30:41;26.10;61.70
67777;DHT22;54576;52.020;5.536;2023-06-26T05:33:10;26.10;61.70
67777;DHT22;54576;52.020;5.536;2023-06-26T05:35:36;26.10;61.00
67777;DHT22;54576;52.020;5.536;2023-06-26T05:38:02;26.20;95.70
67777;DHT22;54576;52.020;5.536;2023-06-26T05:40:28;26.10;60.40
67777;DHT22;54576;52.020;5.536;2023-06-26T05:42:54;25.90;60.40
67777;DHT22;54576;52.020;5.536;2023-06-26T05:45:19;25.80;60.60
67777;DHT22;54576;52.020;5.536;2023-06-26T05:47:45;25.70;61.40
67777;DHT22;54576;52.020;5.536;2023-06-26T05:50:12;25.70;61.10
67777;DHT22;54576;52.020;5.536;2023-06-26T05:55:08;25.70;59.60
67777;DHT22;54576;52.020;5.536;2023-06-26T06:07:19;26.40;99.90
67777;DHT22;54576;52.020;5.536;2023-06-26T06:09:45;26.50;58.80
67777;DHT22;54576;52.020;5.536;2023-06-26T06:12:11;26.60;58.30
67777;DHT22;54576;52.020;5.536;2023-06-26T06:14:36;27.00;86.10
67777;DHT22;54576;52.020;5.536;2023-06-26T06:17:02;27.10;78.00
67777;DHT22;54576;52.020;5.536;2023-06-26T06:19:27;27.00;57.60
67777;DHT22;54576;52.020;5.536;2023-06-26T06:21:53;27.00;94.50
67777;DHT22;54576;52.020;5.536;2023-06-26T06:41:23;26.20;94.30
67777;DHT22;54576;52.020;5.536;2023-06-26T06:43:49;26.30;87.00
67777;DHT22;54576;52.020;5.536;2023-06-26T06:48:40;26.00;99.90
67777;DHT22;54576;52.020;5.536;2023-06-26T06:51:06;25.90;56.70
67777;DHT22;54576;52.020;5.536;2023-06-26T06:53:31;25.90;56.50
67777;DHT22;54576;52.020;5.536;2023-06-26T06:55:57;25.70;56.10
67777;DHT22;54576;52.020;5.536;2023-06-26T06:58:23;25.80;56.50
67777;DHT22;54576;52.020;5.536;2023-06-26T07:00:49;25.60;56.20
67777;DHT22;54576;52.020;5.536;2023-06-26T07:03:16;25.30;56.30
67777;DHT22;54576;52.020;5.536;2023-06-26T07:05:42;24.90;56.70
67777;DHT22;54576;52.020;5.536;2023-06-26T07:08:08;24.70;56.90
67777;DHT22;54576;52.020;5.536;2023-06-26T07:10:34;24.80;57.50
67777;DHT22;54576;52.020;5.536;2023-06-26T07:12:59;24.90;57.30
67777;DHT22;54576;52.020;5.536;2023-06-26T07:15:25;24.60;57.10
67777;DHT22;54576;52.020;5.536;2023-06-26T07:17:50;24.30;57.20
67777;DHT22;54576;52.020;5.536;2023-06-26T07:20:16;23.90;57.50
67777;DHT22;54576;52.020;5.536;2023-06-26T07:22:42;23.90;58.10
67777;DHT22;54576;52.020;5.536;2023-06-26T07:25:10;24.00;57.80
67777;DHT22;54576;52.020;5.536;2023-06-26T07:27:45;24.20;57.60
67777;DHT22;54576;52.020;5.536;2023-06-26T07:30:11;24.30;57.30
67777;DHT22;54576;52.020;5.536;2023-06-26T07:32:37;24.40;56.90
67777;DHT22;54576;52.020;5.536;2023-06-26T07:35:03;24.30;56.80
67777;DHT22;54576;52.020;5.536;2023-06-26T07:37:29;24.30;57.00
67777;DHT22;54576;52.020;5.536;2023-06-26T07:39:55;24.10;57.40
67777;DHT22;54576;52.020;5.536;2023-06-26T07:42:20;24.00;57.70
67777;DHT22;54576;52.020;5.536;2023-06-26T07:44:46;24.10;57.60
67777;DHT22;54576;52.020;5.536;2023-06-26T07:47:12;24.10;57.40
67777;DHT22;54576;52.020;5.536;2023-06-26T07:49:39;24.30;57.00
67777;DHT22;54576;52.020;5.536;2023-06-26T07:52:05;24.20;57.00
67777;DHT22;54576;52.020;5.536;2023-06-26T07:54:31;24.10;58.20
67777;DHT22;54576;52.020;5.536;2023-06-26T07:57:01;24.00;57.50
67777;DHT22;54576;52.020;5.536;2023-06-26T07:59:28;23.90;57.70
67777;DHT22;54576;52.020;5.536;2023-06-26T08:01:55;23.90;58.10
67777;DHT22;54576;52.020;5.536;2023-06-26T08:04:26;24.10;57.90
67777;DHT22;54576;52.020;5.536;2023-06-26T08:06:54;24.20;57.60
67777;DHT22;54576;52.020;5.536;2023-06-26T08:09:23;24.30;57.60
67777;DHT22;54576;52.020;5.536;2023-06-26T08:11:53;24.10;57.90
67777;DHT22;54576;52.020;5.536;2023-06-26T08:14:18;24.00;58.00
67777;DHT22;54576;52.020;5.536;2023-06-26T08:16:44;24.20;57.90
67777;DHT22;54576;52.020;5.536;2023-06-26T08:19:13;24.40;57.40
67777;DHT22;54576;52.020;5.536;2023-06-26T08:21:40;24.60;57.00
67777;DHT22;54576;52.020;5.536;2023-06-26T08:24:06;24.50;57.10
67777;DHT22;54576;52.020;5.536;2023-06-26T08:26:32;24.70;57.00
67777;DHT22;54576;52.020;5.536;2023-06-26T08:28:57;24.60;56.20
67777;DHT22;54576;52.020;5.536;2023-06-26T08:31:23;24.60;56.20
67777;DHT22;54576;52.020;5.536;2023-06-26T08:33:49;24.70;56.40
67777;DHT22;54576;52.020;5.536;2023-06-26T08:36:14;24.80;56.30
67777;DHT22;54576;52.020;5.536;2023-06-26T08:38:40;24.70;56.00
67777;DHT22;54576;52.020;5.536;2023-06-26T08:41:07;24.60;57.40
67777;DHT22;54576;52.020;5.536;2023-06-26T08:43:33;24.50;56.20
67777;DHT22;54576;52.020;5.536;2023-06-26T08:45:59;24.60;56.80
67777;DHT22;54576;52.020;5.536;2023-06-26T08:48:25;24.90;56.30
67777;DHT22;54576;52.020;5.536;2023-06-26T08:50:52;24.90;55.90
67777;DHT22;54576;52.020;5.536;2023-06-26T08:56:03;25.00;55.60
67777;DHT22;54576;52.020;5.536;2023-06-26T08:58:30;24.90;55.90
67777;DHT22;54576;52.020;5.536;2023-06-26T09:00:55;24.80;55.80
67777;DHT22;54576;52.020;5.536;2023-06-26T09:03:21;24.90;55.70
67777;DHT22;54576;52.020;5.536;2023-06-26T09:05:48;25.20;54.70
67777;DHT22;54576;52.020;5.536;2023-06-26T09:08:14;25.40;54.30
67777;DHT22;54576;52.020;5.536;2023-06-26T09:10:40;25.50;53.50
67777;DHT22;54576;52.020;5.536;2023-06-26T09:13:07;25.60;53.10
67777;DHT22;54576;52.020;5.536;2023-06-26T09:15:42;25.70;52.30
67777;DHT22;54576;52.020;5.536;2023-06-26T09:18:08;25.10;52.20
67777;DHT22;54576;52.020;5.536;2023-06-26T09:20:33;24.80;52.80
67777;DHT22;54576;52.020;5.536;2023-06-26T09:23:00;24.80;53.30
67777;DHT22;54576;52.020;5.536;2023-06-26T09:25:29;25.00;52.60
67777;DHT22;54576;52.020;5.536;2023-06-26T09:27:55;25.10;52.50
67777;DHT22;54576;52.020;5.536;2023-06-26T09:30:21;25.00;51.50
67777;DHT22;54576;52.020;5.536;2023-06-26T09:32:47;24.90;51.80
67777;DHT22;54576;52.020;5.536;2023-06-26T09:35:15;24.90;51.40
67777;DHT22;54576;52.020;5.536;2023-06-26T09:37:40;24.70;51.10
67777;DHT22;54576;52.020;5.536;2023-06-26T09:40:06;24.70;51.40
67777;DHT22;54576;52.020;5.536;2023-06-26T09:42:33;24.80;51.40
67777;DHT22;54576;52.020;5.536;2023-06-26T09:44:59;24.90;50.90
67777;DHT22;54576;52.020;5.536;2023-06-26T09:47:25;25.10;50.80
67777;DHT22;54576;52.020;5.536;2023-06-26T09:49:50;25.40;50.90
67777;DHT22;54576;52.020;5.536;2023-06-26T09:52:18;25.70;50.30
67777;DHT22;54576;52.020;5.536;2023-06-26T09:54:45;25.60;50.30
67777;DHT22;54576;52.020;5.536;2023-06-26T09:57:16;25.40;50.70
67777;DHT22;54576;52.020;5.536;2023-06-26T09:59:43;25.50;50.20
67777;DHT22;54576;52.020;5.536;2023-06-26T10:02:10;25.70;50.40
67777;DHT22;54576;52.020;5.536;2023-06-26T10:04:37;25.50;49.10
67777;DHT22;54576;52.020;5.536;2023-06-26T10:07:13;25.00;50.00
67777;DHT22;54576;52.020;5.536;2023-06-26T10:09:42;24.60;50.20
67777;DHT22;54576;52.020;5.536;2023-06-26T10:12:29;24.30;50.00
67777;DHT22;54576;52.020;5.536;2023-06-26T10:14:58;23.90;51.30
67777;DHT22;54576;52.020;5.536;2023-06-26T10:17:28;23.80;52.20
67777;DHT22;54576;52.020;5.536;2023-06-26T10:19:55;24.10;51.70
67777;DHT22;54576;52.020;5.536;2023-06-26T10:22:27;24.10;51.10
67777;DHT22;54576;52.020;5.536;2023-06-26T10:24:55;24.00;51.40
67777;DHT22;54576;52.020;5.536;2023-06-26T10:27:25;24.10;51.70
67777;DHT22;54576;52.020;5.536;2023-06-26T10:29:56;24.00;51.10
67777;DHT22;54576;52.020;5.536;2023-06-26T10:32:25;24.00;50.70
67777;DHT22;54576;52.020;5.536;2023-06-26T10:34:51;24.20;50.70
67777;DHT22;54576;52.020;5.536;2023-06-26T10:37:17;24.20;50.50
67777;DHT22;54576;52.020;5.536;2023-06-26T10:39:47;24.20;50.70
67777;DHT22;54576;52.020;5.536;2023-06-26T10:42:14;24.30;50.00
67777;DHT22;54576;52.020;5.536;2023-06-26T10:44:42;24.40;50.20
67777;DHT22;54576;52.020;5.536;2023-06-26T10:47:09;24.50;50.00
67777;DHT22;54576;52.020;5.536;2023-06-26T10:49:36;24.30;49.80
67777;DHT22;54576;52.020;5.536;2023-06-26T10:52:02;24.10;49.60
67777;DHT22;54576;52.020;5.536;2023-06-26T10:54:37;24.20;49.70
67777;DHT22;54576;52.020;5.536;2023-06-26T10:57:04;24.40;48.50
67777;DHT22;54576;52.020;5.536;2023-06-26T10:59:33;24.60;49.60
67777;DHT22;54576;52.020;5.536;2023-06-26T11:02:01;24.80;49.10
67777;DHT22;54576;52.020;5.536;2023-06-26T11:07:22;24.90;47.00
67777;DHT22;54576;52.020;5.536;2023-06-26T11:12:40;24.50;47.80
67777;DHT22;54576;52.020;5.536;2023-06-26T11:15:12;24.50;48.60
67777;DHT22;54576;52.020;5.536;2023-06-26T11:17:38;24.30;47.40
67777;DHT22;54576;52.020;5.536;2023-06-26T11:20:08;24.10;48.60
67777;DHT22;54576;52.020;5.536;2023-06-26T11:22:35;24.00;49.00
67777;DHT22;54576;52.020;5.536;2023-06-26T11:25:02;24.00;48.00
67777;DHT22;54576;52.020;5.536;2023-06-26T11:27:46;24.00;48.10
67777;DHT22;54576;52.020;5.536;2023-06-26T11:30:23;24.30;45.80
67777;DHT22;54576;52.020;5.536;2023-06-26T11:32:49;24.70;45.40
67777;DHT22;54576;52.020;5.536;2023-06-26T11:35:25;24.90;47.20
67777;DHT22;54576;52.020;5.536;2023-06-26T11:37:56;25.20;46.90
67777;DHT22;54576;52.020;5.536;2023-06-26T11:40:22;25.50;47.60
67777;DHT22;54576;52.020;5.536;2023-06-26T11:42:53;25.70;47.00
67777;DHT22;54576;52.020;5.536;2023-06-26T11:45:20;25.70;47.20
67777;DHT22;54576;52.020;5.536;2023-06-26T11:48:00;25.80;46.90
67777;DHT22;54576;52.020;5.536;2023-06-26T11:50:26;25.60;46.90
67777;DHT22;54576;52.020;5.536;2023-06-26T11:52:56;25.70;47.20
67777;DHT22;54576;52.020;5.536;2023-06-26T11:55:23;25.70;47.00
67777;DHT22;54576;52.020;5.536;2023-06-26T11:57:50;25.70;46.30
67777;DHT22;54576;52.020;5.536;2023-06-26T12:00:16;25.50;46.60
67777;DHT22;54576;52.020;5.536;2023-06-26T12:02:44;25.50;46.30
67777;DHT22;54576;52.020;5.536;2023-06-26T12:05:10;25.30;46.30
67777;DHT22;54576;52.020;5.536;2023-06-26T12:07:37;25.10;46.30
67777;DHT22;54576;52.020;5.536;2023-06-26T12:10:03;24.80;46.60
67777;DHT22;54576;52.020;5.536;2023-06-26T12:12:30;24.90;47.20
67777;DHT22;54576;52.020;5.536;2023-06-26T12:14:57;25.10;47.30
67777;DHT22;54576;52.020;5.536;2023-06-26T12:17:24;25.30;47.00
67777;DHT22;54576;52.020;5.536;2023-06-26T12:19:50;25.20;46.20
67777;DHT22;54576;52.020;5.536;2023-06-26T12:22:17;24.80;45.50
67777;DHT22;54576;52.020;5.536;2023-06-26T12:24:44;24.70;46.60
67777;DHT22;54576;52.020;5.536;2023-06-26T12:27:11;25.00;46.90
67777;DHT22;54576;52.020;5.536;2023-06-26T12:29:40;25.10;46.00
67777;DHT22;54576;52.020;5.536;2023-06-26T12:32:10;25.10;46.50
67777;DHT22;54576;52.020;5.536;2023-06-26T12:34:38;25.00;45.30
67777;DHT22;54576;52.020;5.536;2023-06-26T12:37:11;24.80;45.30
67777;DHT22;54576;52.020;5.536;2023-06-26T12:42:27;24.70;44.70
67777;DHT22;54576;52.020;5.536;2023-06-26T12:44:54;24.50;45.10
67777;DHT22;54576;52.020;5.536;2023-06-26T12:47:27;24.60;45.60
67777;DHT22;54576;52.020;5.536;2023-06-26T12:49:53;24.40;44.50
67777;DHT22;54576;52.020;5.536;2023-06-26T12:52:22;24.40;46.00
67777;DHT22;54576;52.020;5.536;2023-06-26T12:54:52;24.60;45.90
67777;DHT22;54576;52.020;5.536;2023-06-26T12:57:18;24.80;45.30
67777;DHT22;54576;52.020;5.536;2023-06-26T12:59:44;24.80;44.20
67777;DHT22;54576;52.020;5.536;2023-06-26T13:02:10;24.70;44.70
67777;DHT22;54576;52.020;5.536;2023-06-26T13:04:37;24.70;44.80
67777;DHT22;54576;52.020;5.536;2023-06-26T13:07:08;24.80;44.80
67777;DHT22;54576;52.020;5.536;2023-06-26T13:09:34;24.80;44.90
67777;DHT22;54576;52.020;5.536;2023-06-26T13:12:01;24.50;44.10
67777;DHT22;54576;52.020;5.536;2023-06-26T13:14:27;24.30;44.40
67777;DHT22;54576;52.020;5.536;2023-06-26T13:16:52;24.10;44.50
67777;DHT22;54576;52.020;5.536;2023-06-26T13:19:18;24.00;44.40
67777;DHT22;54576;52.020;5.536;2023-06-26T13:21:43;23.90;44.40
67777;DHT22;54576;52.020;5.536;2023-06-26T13:24:09;24.10;44.80
67777;DHT22;54576;52.020;5.536;2023-06-26T13:26:35;24.30;45.00
67777;DHT22;54576;52.020;5.536;2023-06-26T13:29:01;24.40;46.20
67777;DHT22;54576;52.020;5.536;2023-06-26T13:31:26;24.50;44.30
67777;DHT22;54576;52.020;5.536;2023-06-26T13:33:52;24.30;44.60
67777;DHT22;54576;52.020;5.536;2023-06-26T13:36:19;24.20;44.80
67777;DHT22;54576;52.020;5.536;2023-06-26T13:38:45;24.10;44.20
67777;DHT22;54576;52.020;5.536;2023-06-26T13:41:10;24.10;44.30
67777;DHT22;54576;52.020;5.536;2023-06-26T13:43:36;24.00;44.60
67777;DHT22;54576;52.020;5.536;2023-06-26T13:46:03;24.10;45.00
67777;DHT22;54576;52.020;5.536;2023-06-26T13:48:29;24.10;45.20
67777;DHT22;54576;52.020;5.536;2023-06-26T13:50:54;24.10;45.10
67777;DHT22;54576;52.020;5.536;2023-06-26T13:53:21;23.90;44.50
67777;DHT22;54576;52.020;5.536;2023-06-26T13:55:47;23.60;44.50
67777;DHT22;54576;52.020;5.536;2023-06-26T13:58:12;23.60;45.10
67777;DHT22;54576;52.020;5.536;2023-06-26T14:00:39;23.90;45.30
67777;DHT22;54576;52.020;5.536;2023-06-26T14:03:05;24.20;45.10
67777;DHT22;54576;52.020;5.536;2023-06-26T14:05:35;24.30;44.50
67777;DHT22;54576;52.020;5.536;2023-06-26T14:08:06;24.20;43.70
67777;DHT22;54576;52.020;5.536;2023-06-26T14:10:32;23.90;43.60
67777;DHT22;54576;52.020;5.536;2023-06-26T14:12:59;23.80;44.50
67777;DHT22;54576;52.020;5.536;2023-06-26T14:15:25;23.70;44.70
67777;DHT22;54576;52.020;5.536;2023-06-26T14:17:50;23.60;44.00
67777;DHT22;54576;52.020;5.536;2023-06-26T14:20:17;23.40;44.70
67777;DHT22;54576;52.020;5.536;2023-06-26T14:22:43;23.40;44.80
67777;DHT22;54576;52.020;5.536;2023-06-26T14:25:13;23.50;45.20
67777;DHT22;54576;52.020;5.536;2023-06-26T14:27:39;23.60;45.20
67777;DHT22;54576;52.020;5.536;2023-06-26T14:30:05;23.70;45.30
67777;DHT22;54576;52.020;5.536;2023-06-26T14:32:31;23.70;45.20
67777;DHT22;54576;52.020;5.536;2023-06-26T14:34:57;23.70;45.00
67777;DHT22;54576;52.020;5.536;2023-06-26T14:37:23;23.70;45.30
67777;DHT22;54576;52.020;5.536;2023-06-26T14:39:49;23.50;45.10
67777;DHT22;54576;52.020;5.536;2023-06-26T14:42:15;23.50;45.30
67777;DHT22;54576;52.020;5.536;2023-06-26T14:44:40;23.40;45.10
67777;DHT22;54576;52.020;5.536;2023-06-26T14:47:06;23.30;45.00
67777;DHT22;54576;52.020;5.536;2023-06-26T14:49:32;23.20;44.70
67777;DHT22;54576;52.020;5.536;2023-06-26T14:51:57;23.20;44.90
67777;DHT22;54576;52.020;5.536;2023-06-26T14:54:23;23.30;45.00
67777;DHT22;54576;52.020;5.536;2023-06-26T14:56:49;23.30;44.90
67777;DHT22;54576;52.020;5.536;2023-06-26T14:59:15;23.30;44.90
67777;DHT22;54576;52.020;5.536;2023-06-26T15:01:41;23.40;44.80
67777;DHT22;54576;52.020;5.536;2023-06-26T15:04:06;23.60;45.00
67777;DHT22;54576;52.020;5.536;2023-06-26T15:06:33;23.70;45.00
67777;DHT22;54576;52.020;5.536;2023-06-26T15:08:58;23.80;44.40
67777;DHT22;54576;52.020;5.536;2023-06-26T15:11:24;23.80;44.10
67777;DHT22;54576;52.020;5.536;2023-06-26T15:13:50;23.70;44.50
67777;DHT22;54576;52.020;5.536;2023-06-26T15:16:16;23.60;44.60
67777;DHT22;54576;52.020;5.536;2023-06-26T15:18:41;23.60;44.50
67777;DHT22;54576;52.020;5.536;2023-06-26T15:21:07;23.70;44.70
67777;DHT22;54576;52.020;5.536;2023-06-26T15:23:36;23.80;44.80
67777;DHT22;54576;52.020;5.536;2023-06-26T15:26:01;24.00;44.70
67777;DHT22;54576;52.020;5.536;2023-06-26T15:28:27;24.10;44.70
67777;DHT22;54576;52.020;5.536;2023-06-26T15:30:53;24.00;44.60
67777;DHT22;54576;52.020;5.536;2023-06-26T15:33:21;23.80;44.60
67777;DHT22;54576;52.020;5.536;2023-06-26T15:35:47;23.60;44.90
67777;DHT22;54576;52.020;5.536;2023-06-26T15:38:12;23.30;46.30
67777;DHT22;54576;52.020;5.536;2023-06-26T15:40:38;23.30;45.40
67777;DHT22;54576;52.020;5.536;2023-06-26T15:43:03;23.40;45.30
67777;DHT22;54576;52.020;5.536;2023-06-26T15:45:29;23.40;45.10
67777;DHT22;54576;52.020;5.536;2023-06-26T15:47:55;23.30;46.10
67777;DHT22;54576;52.020;5.536;2023-06-26T15:50:21;23.30;45.20
67777;DHT22;54576;52.020;5.536;2023-06-26T15:52:47;23.30;45.40
67777;DHT22;54576;52.020;5.536;2023-06-26T15:55:13;23.20;45.20
67777;DHT22;54576;52.020;5.536;2023-06-26T15:57:39;23.10;45.20
67777;DHT22;54576;52.020;5.536;2023-06-26T16:00:08;23.10;45.30
67777;DHT22;54576;52.020;5.536;2023-06-26T16:02:34;23.20;45.00
67777;DHT22;54576;52.020;5.536;2023-06-26T16:05:00;23.20;45.10
67777;DHT22;54576;52.020;5.536;2023-06-26T16:07:26;23.10;44.60
67777;DHT22;54576;52.020;5.536;2023-06-26T16:09:55;23.00;44.50
67777;DHT22;54576;52.020;5.536;2023-06-26T16:12:23;22.80;44.80
67777;DHT22;54576;52.020;5.536;2023-06-26T16:14:49;22.70;45.40